Time;durP1;ratioP1;P1;durP2;ratioP2;P2;SDS_P1;SDS_P2;PMS_P1;PMS_P2;Temp;Humidity;BMP_temperature;BMP_pressure;BME280_temperature;BME280_humidity;BME280_pressure;Samples;Min_cycle;Max_cycle;Signal;HPM_P1;HPM_P2
2021/12/16 00:02:01;;;;;;;43.22;29.67;;;;;;;8.20;96.83;103254.63;5053228;28;20057;-78
2021/12/16 00:05:15;;;;;;;45.22;30.77;;;;;;;8.26;96.92;103263.41;5043400;28;20037;-78
2021/12/16 00:07:35;;;;;;;47.95;32.03;;;;;;;8.25;96.64;103258.97;5043847;28;20037;-78
2021/12/16 00:10:18;;;;;;;46.00;28.70;;;;;;;8.26;96.65;103260.72;5048676;28;20017;-78
2021/12/16 00:31:49;;;;;;;44.22;30.42;;;;;;;8.20;96.97;103264.47;5043461;28;20517;-79
2021/12/16 00:34:15;;;;;;;44.63;30.00;;;;;;;8.21;97.02;103271.56;5043749;28;20036;-78
2021/12/16 00:36:44;;;;;;;43.72;30.27;;;;;;;8.21;96.93;103258.16;5037662;28;20028;-78
2021/12/16 00:39:13;;;;;;;46.03;30.27;;;;;;;8.21;96.97;103264.41;5049724;28;20033;-78
2021/12/16 00:41:41;;;;;;;43.53;30.93;;;;;;;8.24;96.72;103274.16;5043065;28;20029;-78
2021/12/16 00:49:42;;;;;;;47.53;30.40;;;;;;;8.21;96.90;103268.88;5032369;28;20033;-78
2021/12/16 00:55:19;;;;;;;47.95;29.20;;;;;;;8.21;96.84;103271.56;5039515;28;20474;-78
2021/12/16 00:57:45;;;;;;;49.72;29.75;;;;;;;8.21;96.93;103269.78;5055589;28;20033;-78
2021/12/16 01:00:14;;;;;;;45.75;30.75;;;;;;;8.21;96.84;103263.53;5048104;28;20032;-78
2021/12/16 01:05:45;;;;;;;41.65;28.48;;;;;;;8.19;96.91;103265.38;5036703;28;20068;-78
2021/12/16 01:08:21;;;;;;;42.70;28.73;;;;;;;8.19;96.85;103273.41;5045396;28;20120;-78
2021/12/16 01:35:47;;;;;;;43.28;28.67;;;;;;;8.20;97.12;103288.56;5032147;28;20147;-79
2021/12/16 01:38:21;;;;;;;42.13;29.38;;;;;;;8.20;97.19;103280.53;5031755;28;20045;-79
2021/12/16 01:51:39;;;;;;;44.03;27.73;;;;;;;8.21;97.32;103301.03;5035945;28;20083;-79
2021/12/16 01:56:59;;;;;;;44.70;28.67;;;;;;;8.21;97.02;103304.59;5033529;28;20155;-79
2021/12/16 01:59:33;;;;;;;43.80;29.33;;;;;;;8.21;97.16;103314.41;5048317;28;20032;-79
2021/12/16 02:02:11;;;;;;;47.80;29.85;;;;;;;8.20;97.26;103304.66;5042095;28;20172;-78
2021/12/16 02:04:42;;;;;;;47.38;31.05;;;;;;;8.20;97.18;103310.88;5030371;28;20126;-78
2021/12/16 02:07:25;;;;;;;44.40;29.35;;;;;;;8.19;97.47;103310.91;5038940;28;20112;-78
2021/12/16 02:09:50;;;;;;;44.55;27.98;;;;;;;8.18;97.14;103310.00;5030449;28;20029;-78
2021/12/16 02:12:49;;;;;;;46.05;29.98;;;;;;;8.19;97.39;103316.25;5032410;28;20021;-78
2021/12/16 02:29:19;;;;;;;41.88;27.42;;;;;;;8.18;97.22;103320.72;5040183;28;20401;-78
2021/12/16 02:31:54;;;;;;;41.35;26.08;;;;;;;8.20;97.35;103318.03;5032787;28;20044;-78
2021/12/16 02:34:28;;;;;;;41.03;28.38;;;;;;;8.17;96.84;103328.78;5048404;28;20548;-78
2021/12/16 02:36:54;;;;;;;43.80;29.52;;;;;;;8.17;97.11;103326.13;5047839;28;20025;-78
2021/12/16 02:39:26;;;;;;;40.85;27.35;;;;;;;8.15;97.13;103327.97;5034592;28;20032;-78
2021/12/16 02:41:59;;;;;;;47.70;26.15;;;;;;;8.14;97.13;103328.88;5051097;28;20087;-78
2021/12/16 02:44:36;;;;;;;42.65;28.60;;;;;;;8.15;97.48;103319.94;5049795;28;20382;-78
2021/12/16 02:49:56;;;;;;;38.40;26.88;;;;;;;8.14;97.36;103335.13;5051829;28;20040;-78
2021/12/16 02:52:24;;;;;;;39.72;25.35;;;;;;;8.11;97.36;103331.63;5050559;28;20029;-78
2021/12/16 02:54:49;;;;;;;40.15;25.85;;;;;;;8.11;97.35;103329.84;5044739;28;20384;-78
2021/12/16 02:57:16;;;;;;;40.13;27.45;;;;;;;8.13;97.44;103327.13;5047186;28;20039;-78
2021/12/16 02:59:42;;;;;;;39.53;26.42;;;;;;;8.13;97.50;103327.13;5048138;28;20025;-78
2021/12/16 03:02:14;;;;;;;46.25;27.27;;;;;;;8.10;97.03;103333.44;5050614;28;20028;-78
2021/12/16 03:04:42;;;;;;;47.10;28.60;;;;;;;8.12;97.60;103328.91;5047236;28;20397;-78
2021/12/16 03:07:11;;;;;;;41.20;28.08;;;;;;;8.12;97.61;103320.88;5050198;28;20025;-78
2021/12/16 03:12:53;;;;;;;47.70;27.88;;;;;;;8.15;97.49;103326.16;5036765;28;20043;-78
2021/12/16 03:18:07;;;;;;;43.80;26.95;;;;;;;8.18;97.66;103322.53;5042304;28;20119;-78
2021/12/16 03:20:45;;;;;;;39.95;26.17;;;;;;;8.17;97.47;103329.69;5042916;28;20025;-79
2021/12/16 03:26:05;;;;;;;39.35;26.55;;;;;;;8.17;97.39;103321.66;5038223;28;20469;-78
2021/12/16 03:38:54;;;;;;;43.45;26.67;;;;;;;8.18;97.35;103330.56;5032340;28;20040;-77
2021/12/16 03:41:20;;;;;;;41.20;27.42;;;;;;;8.17;97.71;103329.69;5038220;28;20423;-77
2021/12/16 03:43:47;;;;;;;39.25;28.33;;;;;;;8.18;97.61;103328.75;5046715;28;20104;-77
2021/12/16 03:46:27;;;;;;;44.15;27.90;;;;;;;8.20;97.48;103326.06;5031681;28;20029;-77
2021/12/16 03:48:58;;;;;;;41.30;26.27;;;;;;;8.19;97.66;103337.69;5051051;28;20025;-78
2021/12/16 03:51:38;;;;;;;39.03;25.88;;;;;;;8.15;97.11;103330.66;5046083;28;20036;-78
2021/12/16 03:54:10;;;;;;;42.50;26.67;;;;;;;8.15;97.38;103344.91;5040008;28;20075;-78
2021/12/16 03:56:36;;;;;;;37.83;25.00;;;;;;;8.13;97.19;103352.09;5041788;28;20039;-78
2021/12/16 03:59:03;;;;;;;42.83;28.33;;;;;;;8.13;97.59;103348.56;5043993;28;20048;-78
2021/12/16 04:01:30;;;;;;;44.50;27.48;;;;;;;8.14;97.50;103350.31;5052997;28;20457;-78
2021/12/16 04:03:57;;;;;;;41.58;28.17;;;;;;;8.12;97.39;103353.00;5049444;28;20128;-78
2021/12/16 04:06:25;;;;;;;42.17;26.35;;;;;;;8.09;97.18;103361.13;5048773;28;20044;-78
2021/12/16 04:08:52;;;;;;;36.95;26.67;;;;;;;8.07;97.38;103351.34;5048882;28;20028;-78
2021/12/16 04:11:23;;;;;;;43.42;24.88;;;;;;;8.07;97.54;103354.03;5049438;28;20017;-78
2021/12/16 04:13:56;;;;;;;36.63;23.92;;;;;;;8.04;97.40;103344.28;5034702;28;20550;-78
2021/12/16 04:16:56;;;;;;;37.22;24.83;;;;;;;8.09;97.46;103357.56;5044060;28;20107;-78
2021/12/16 04:19:24;;;;;;;40.05;26.92;;;;;;;8.04;97.64;103355.00;5036960;28;20075;-78
2021/12/16 04:22:18;;;;;;;39.75;27.58;;;;;;;8.10;97.85;103354.00;5040676;28;20053;-78
2021/12/16 04:24:48;;;;;;;44.47;27.15;;;;;;;8.07;97.63;103348.69;5028645;28;20029;-78
2021/12/16 04:27:14;;;;;;;39.05;25.40;;;;;;;8.09;97.75;103353.09;5039068;28;20452;-78
2021/12/16 04:29:40;;;;;;;41.83;27.33;;;;;;;8.10;97.46;103354.00;5050660;28;20048;-78
2021/12/16 04:32:07;;;;;;;40.22;27.33;;;;;;;8.08;97.61;103358.47;5043886;28;20112;-78
2021/12/16 04:34:33;;;;;;;39.15;25.77;;;;;;;8.08;97.76;103355.81;5031225;28;20461;-78
2021/12/16 04:36:59;;;;;;;37.78;26.02;;;;;;;8.07;97.54;103341.53;5043591;28;20599;-78
2021/12/16 04:39:27;;;;;;;37.88;25.50;;;;;;;8.05;97.28;103346.94;5029009;28;20120;-78
2021/12/16 04:41:54;;;;;;;43.63;27.10;;;;;;;8.04;97.42;103347.84;5029084;28;20025;-78
2021/12/16 04:44:20;;;;;;;43.97;26.63;;;;;;;8.04;97.73;103338.94;5030531;28;20108;-78
2021/12/16 04:46:46;;;;;;;40.88;26.42;;;;;;;8.04;97.76;103347.84;5039688;28;20031;-78
2021/12/16 04:49:14;;;;;;;39.25;26.08;;;;;;;8.04;97.56;103339.81;5030497;28;20147;-78
2021/12/16 04:51:43;;;;;;;41.72;26.80;;;;;;;8.01;97.45;103339.88;5030964;28;20036;-78
2021/12/16 04:54:10;;;;;;;39.53;25.00;;;;;;;8.00;97.13;103346.13;5049671;28;20033;-78
2021/12/16 04:56:37;;;;;;;40.75;25.50;;;;;;;7.95;96.71;103348.06;5044193;28;20029;-78
2021/12/16 04:59:08;;;;;;;39.35;25.27;;;;;;;7.93;96.85;103347.19;5035246;28;20064;-78
2021/12/16 05:01:35;;;;;;;38.10;25.80;;;;;;;7.89;97.06;103345.50;5041705;28;20056;-78
2021/12/16 05:04:00;;;;;;;46.10;25.23;;;;;;;7.85;96.96;103351.84;5047711;28;20048;-78
2021/12/16 05:06:26;;;;;;;41.80;25.30;;;;;;;7.79;96.36;103347.50;5047402;28;20060;-78
2021/12/16 05:08:51;;;;;;;39.25;24.65;;;;;;;7.74;96.26;103346.72;5028488;28;20025;-78
2021/12/16 05:11:16;;;;;;;37.45;23.70;;;;;;;7.66;95.90;103348.69;5029090;28;20114;-78
2021/12/16 05:13:44;;;;;;;41.95;26.02;;;;;;;7.60;96.34;103344.34;5046806;28;20019;-78
2021/12/16 05:16:09;;;;;;;39.35;24.02;;;;;;;7.57;96.04;103344.41;5034009;28;20037;-78
2021/12/16 05:18:37;;;;;;;38.03;23.70;;;;;;;7.51;96.03;103344.50;5043647;28;20041;-78
2021/12/16 05:21:12;;;;;;;37.75;22.83;;;;;;;7.48;96.38;103355.28;5044065;28;20025;-79
2021/12/16 05:26:21;;;;;;;36.95;22.85;;;;;;;7.34;95.56;103348.41;5044957;28;20060;-78
2021/12/16 05:28:55;;;;;;;37.03;24.05;;;;;;;7.26;94.99;103350.38;5036897;28;20017;-78
2021/12/16 05:31:23;;;;;;;40.80;22.88;;;;;;;7.17;94.74;103359.44;5030548;28;20108;-78
2021/12/16 05:33:50;;;;;;;34.28;23.42;;;;;;;7.07;93.89;103359.63;5031835;28;20468;-78
2021/12/16 05:36:16;;;;;;;31.77;21.38;;;;;;;7.02;93.75;103359.72;5040672;28;20447;-78
2021/12/16 05:38:42;;;;;;;33.67;21.20;;;;;;;6.94;93.84;103366.97;5045287;28;20021;-78
2021/12/16 05:41:11;;;;;;;34.38;21.83;;;;;;;6.85;93.96;103370.69;5041268;28;20095;-78
2021/12/16 05:43:37;;;;;;;37.88;24.13;;;;;;;6.78;93.68;103369.94;5029757;28;20033;-78
2021/12/16 05:46:03;;;;;;;37.08;21.55;;;;;;;6.69;93.47;103374.53;5035294;28;20029;-78
2021/12/16 05:48:31;;;;;;;35.25;22.30;;;;;;;6.61;93.36;103375.53;5033041;28;20025;-77
2021/12/16 05:51:01;;;;;;;31.65;17.95;;;;;;;6.47;92.59;103381.09;5029762;28;20022;-77
2021/12/16 05:53:27;;;;;;;;;;;;;;;6.58;93.55;103383.59;5048130;28;20159;-77
2021/12/16 05:55:52;;;;;;;31.95;20.35;;;;;;;6.38;93.00;103386.56;5033753;28;20023;-77
2021/12/16 05:58:19;;;;;;;34.80;21.02;;;;;;;6.32;93.23;103386.66;5051362;28;20021;-77
2021/12/16 06:00:48;;;;;;;33.00;19.98;;;;;;;6.25;93.13;103390.31;5052733;28;20317;-77
2021/12/16 06:03:15;;;;;;;37.47;20.60;;;;;;;6.18;93.09;103402.91;5046791;28;20017;-77
2021/12/16 06:05:40;;;;;;;35.70;20.95;;;;;;;6.14;93.26;103403.84;5049788;28;20403;-77
2021/12/16 06:08:07;;;;;;;34.42;21.20;;;;;;;6.09;93.25;103401.25;5051547;28;20120;-77
2021/12/16 06:11:12;;;;;;;31.88;18.23;;;;;;;6.01;92.09;103403.13;5033176;28;20025;-77
2021/12/16 06:13:35;;;;;;;34.03;20.42;;;;;;;5.96;92.71;103412.94;5043964;28;20036;-77
2021/12/16 06:27:00;;;;;;;32.40;19.40;;;;;;;5.66;92.13;103417.72;5041831;28;20183;-78
2021/12/16 06:29:25;;;;;;;30.38;17.35;;;;;;;5.63;91.92;103408.91;5038381;28;20028;-78
2021/12/16 06:31:51;;;;;;;33.42;20.27;;;;;;;5.59;92.52;103405.34;5047186;28;20033;-78
2021/12/16 06:34:17;;;;;;;33.17;17.50;;;;;;;5.51;92.09;103420.59;5041672;28;20075;-78
2021/12/16 06:36:42;;;;;;;33.03;18.75;;;;;;;5.53;92.86;103426.78;5049801;28;20033;-78
2021/12/16 06:39:09;;;;;;;34.40;19.80;;;;;;;5.48;92.51;103428.63;5047940;28;20033;-78
2021/12/16 06:41:37;;;;;;;33.88;20.88;;;;;;;5.44;92.69;103419.75;5039003;28;20033;-78
2021/12/16 06:44:15;;;;;;;37.13;18.70;;;;;;;5.44;92.06;103425.09;5041441;28;20406;-78
2021/12/16 06:46:43;;;;;;;29.02;16.35;;;;;;;5.35;91.49;103417.19;5042666;28;20064;-78
2021/12/16 06:49:11;;;;;;;32.20;19.17;;;;;;;5.34;92.29;103420.75;5051015;28;20473;-78
2021/12/16 06:51:51;;;;;;;33.85;19.08;;;;;;;5.31;91.78;103428.78;5050311;28;20068;-78
2021/12/16 06:59:47;;;;;;;32.00;18.63;;;;;;;5.20;91.60;103431.56;5032286;28;20049;-77
2021/12/16 07:02:19;;;;;;;33.83;19.58;;;;;;;5.15;91.88;103423.56;5012381;28;20533;-77
2021/12/16 07:04:45;;;;;;;29.60;17.50;;;;;;;5.12;91.70;103430.72;5028900;28;20037;-77
2021/12/16 07:07:12;;;;;;;32.15;18.85;;;;;;;5.06;91.23;103437.00;5028201;28;20560;-77
2021/12/16 07:09:38;;;;;;;32.20;19.85;;;;;;;5.06;91.12;103432.53;5029085;28;20032;-77
2021/12/16 07:12:08;;;;;;;33.10;20.58;;;;;;;5.02;91.97;103437.91;5008657;28;20121;-77
2021/12/16 07:14:36;;;;;;;;;;;;;;;5.14;91.79;103455.56;5010184;28;20042;-77
2021/12/16 07:17:09;;;;;;;30.60;18.20;;;;;;;4.99;91.18;103451.25;5008853;28;19917;-77
2021/12/16 07:19:35;;;;;;;33.08;19.73;;;;;;;4.95;91.68;103449.50;5008476;28;20037;-77
2021/12/16 07:22:01;;;;;;;31.52;17.27;;;;;;;4.90;91.71;103465.53;5031212;28;20053;-77
2021/12/16 07:24:26;;;;;;;31.83;19.15;;;;;;;4.83;90.57;103475.38;5025177;28;20056;-77
2021/12/16 07:26:52;;;;;;;31.02;17.63;;;;;;;4.82;90.90;103468.28;5029649;28;20602;-77
2021/12/16 07:29:17;;;;;;;30.45;19.08;;;;;;;4.79;91.40;103470.06;5030496;28;20536;-77
2021/12/16 07:31:43;;;;;;;33.72;18.50;;;;;;;4.80;91.61;103472.75;5038249;28;20098;-77
2021/12/16 07:34:10;;;;;;;30.80;18.63;;;;;;;4.75;90.84;103489.66;5033981;28;20048;-77
2021/12/16 07:36:39;;;;;;;32.15;19.05;;;;;;;4.75;91.44;103490.53;5046730;28;20425;-77
2021/12/16 07:39:09;;;;;;;33.42;19.95;;;;;;;4.71;91.12;103494.09;5039221;28;20432;-77
2021/12/16 07:41:35;;;;;;;32.95;18.98;;;;;;;4.70;91.54;103497.63;5044146;28;20052;-77
2021/12/16 07:44:10;;;;;;;31.60;19.13;;;;;;;4.70;91.55;103497.63;5040340;28;20028;-77
2021/12/16 07:46:46;;;;;;;34.72;21.48;;;;;;;4.74;92.98;103502.06;5044869;28;20044;-77
2021/12/16 07:49:16;;;;;;;62.58;22.33;;;;;;;4.80;95.62;103503.81;5046821;28;20036;-77
2021/12/16 07:51:43;;;;;;;30.45;17.35;;;;;;;4.80;93.58;103506.47;5044899;28;20120;-77
2021/12/16 07:54:10;;;;;;;91.07;21.50;;;;;;;4.79;94.03;103515.34;5048350;28;20566;-77
2021/12/16 07:56:36;;;;;;;28.67;16.42;;;;;;;4.75;92.97;103529.59;5040240;28;20023;-77
2021/12/16 07:59:02;;;;;;;28.48;16.23;;;;;;;4.76;93.08;103529.59;5030986;28;20034;-77
2021/12/16 08:01:27;;;;;;;27.88;15.82;;;;;;;4.73;92.32;103534.94;5067461;28;20028;-77
2021/12/16 08:03:54;;;;;;;29.90;16.13;;;;;;;4.71;92.74;103526.97;5070079;28;20365;-77
2021/12/16 08:06:23;;;;;;;27.70;16.10;;;;;;;4.72;92.07;103538.50;5059180;28;20037;-77
2021/12/16 08:08:56;;;;;;;29.83;16.20;;;;;;;4.75;91.64;103538.47;5029713;28;20079;-77
2021/12/16 08:11:23;;;;;;;26.60;16.42;;;;;;;4.75;91.49;103542.94;5031061;28;20083;-77
2021/12/16 08:13:48;;;;;;;29.85;17.58;;;;;;;4.73;91.87;103541.16;5030980;28;20067;-77
2021/12/16 08:16:14;;;;;;;28.23;16.00;;;;;;;4.75;91.48;103549.13;5041068;28;20621;-77
2021/12/16 08:18:39;;;;;;;32.03;17.77;;;;;;;4.71;91.33;103550.03;5049167;28;20025;-77
2021/12/16 08:21:04;;;;;;;31.55;19.08;;;;;;;4.72;91.68;103550.03;5050704;28;20032;-78
2021/12/16 08:23:30;;;;;;;29.10;17.42;;;;;;;4.75;91.64;103554.47;5049386;28;20088;-77
2021/12/16 08:25:56;;;;;;;31.05;18.25;;;;;;;4.72;91.58;103560.69;5050724;28;20389;-77
2021/12/16 08:28:23;;;;;;;30.73;18.50;;;;;;;4.73;91.59;103564.25;5050711;28;20029;-77
2021/12/16 08:30:50;;;;;;;36.38;18.90;;;;;;;4.73;91.05;103574.91;5047489;28;20045;-77
2021/12/16 08:33:16;;;;;;;34.35;18.20;;;;;;;4.69;91.27;103567.81;5030765;28;20040;-77
2021/12/16 08:35:46;;;;;;;31.45;19.55;;;;;;;4.74;91.69;103571.31;5046655;28;20033;-77
2021/12/16 08:38:13;;;;;;;33.42;17.20;;;;;;;4.77;91.94;103573.97;5038963;28;20266;-77
2021/12/16 08:40:42;;;;;;;30.90;18.77;;;;;;;4.76;91.09;103576.66;5039777;28;20428;-77
2021/12/16 08:43:08;;;;;;;33.13;18.33;;;;;;;4.78;91.89;103575.75;5030533;28;20040;-77
2021/12/16 08:45:34;;;;;;;28.60;17.83;;;;;;;4.78;91.94;103575.75;5050628;28;20580;-77
2021/12/16 08:48:01;;;;;;;31.73;19.80;;;;;;;4.83;92.26;103579.28;5050292;28;20176;-77
2021/12/16 08:50:30;;;;;;;33.58;19.48;;;;;;;4.86;92.57;103573.03;5050103;28;20081;-77
2021/12/16 08:52:58;;;;;;;32.15;19.60;;;;;;;4.87;92.64;103570.38;5048919;28;20098;-77
2021/12/16 08:55:24;;;;;;;31.92;18.83;;;;;;;4.89;92.94;103581.91;5047091;28;20100;-77
2021/12/16 08:57:49;;;;;;;31.80;18.90;;;;;;;4.96;92.80;103601.41;5033274;28;20179;-77
2021/12/16 09:00:20;;;;;;;33.92;21.38;;;;;;;5.01;93.76;103588.97;5046578;28;20040;-77
2021/12/16 09:02:45;;;;;;;35.30;21.55;;;;;;;5.04;93.68;103598.72;5043746;28;20607;-77
2021/12/16 09:05:10;;;;;;;54.90;19.63;;;;;;;5.11;93.75;103607.56;5046309;28;20048;-77
2021/12/16 09:07:36;;;;;;;31.67;18.60;;;;;;;5.19;93.50;103613.75;5047750;28;20025;-77
2021/12/16 09:10:04;;;;;;;36.72;21.92;;;;;;;5.25;94.27;103603.91;5045161;28;20103;-77
2021/12/16 09:15:05;;;;;;;32.47;20.15;;;;;;;5.37;94.39;103613.63;5043884;28;20033;-77
2021/12/16 09:17:30;;;;;;;32.35;18.73;;;;;;;5.41;93.55;103606.47;5045333;28;20032;-77
2021/12/16 09:19:56;;;;;;;35.47;20.40;;;;;;;5.42;93.54;103600.25;5045402;28;20029;-77
2021/12/16 09:22:23;;;;;;;35.80;20.73;;;;;;;5.50;95.33;103608.19;5041735;28;21467;-77
2021/12/16 09:24:50;;;;;;;34.13;20.50;;;;;;;5.60;95.65;103616.09;5045342;28;20036;-77
2021/12/16 09:27:17;;;;;;;35.58;21.05;;;;;;;5.65;94.89;103612.53;5045959;28;20332;-77
2021/12/16 09:29:43;;;;;;;38.67;21.85;;;;;;;5.69;95.21;103609.81;5041927;28;20029;-77
2021/12/16 09:32:08;;;;;;;33.13;20.35;;;;;;;5.74;94.86;103601.75;5043715;28;20071;-77
2021/12/16 09:34:36;;;;;;;38.03;23.23;;;;;;;5.87;96.49;103611.44;5041182;28;20119;-77
2021/12/16 09:37:02;;;;;;;35.33;22.60;;;;;;;5.97;96.86;103619.38;5043045;28;20028;-77
2021/12/16 09:39:27;;;;;;;36.30;22.45;;;;;;;6.07;96.77;103616.63;5045402;28;20037;-77
2021/12/16 09:41:56;;;;;;;39.85;24.20;;;;;;;6.16;96.67;103610.31;5045785;28;20430;-77
2021/12/16 09:44:22;;;;;;;39.63;27.25;;;;;;;6.33;98.09;103620.81;5044222;28;20029;-77
2021/12/16 09:46:49;;;;;;;41.53;29.67;;;;;;;6.44;98.46;103620.69;5044563;28;20021;-77
2021/12/16 09:49:17;;;;;;;42.55;25.63;;;;;;;6.45;97.34;103612.66;5047597;28;20103;-77
2021/12/16 09:51:43;;;;;;;40.17;27.65;;;;;;;6.58;97.83;103617.88;5044888;28;20041;-77
2021/12/16 09:54:12;;;;;;;41.45;29.60;;;;;;;6.64;98.05;103629.34;5044373;28;20087;-77
2021/12/16 09:56:41;;;;;;;45.13;28.53;;;;;;;6.72;97.92;103607.00;5042974;28;20061;-77
2021/12/16 09:59:10;;;;;;;43.95;27.65;;;;;;;6.79;98.25;103611.34;5047457;28;20303;-77
2021/12/16 10:01:36;;;;;;;49.47;32.08;;;;;;;6.88;98.78;103613.94;5055055;28;20484;-77
2021/12/16 10:04:06;;;;;;;45.50;32.00;;;;;;;6.98;98.74;103604.88;5041372;28;20139;-77
2021/12/16 10:06:34;;;;;;;47.13;32.92;;;;;;;7.08;98.79;103618.13;5044889;28;20040;-77
2021/12/16 10:09:01;;;;;;;50.03;33.90;;;;;;;7.17;98.77;103626.00;5049657;28;20024;-77
2021/12/16 10:11:28;;;;;;;50.45;36.58;;;;;;;7.28;99.42;103610.69;5056388;28;20342;-77
2021/12/16 10:19:22;;;;;;;47.88;34.67;;;;;;;7.50;98.52;103623.75;5044224;28;20417;-77
2021/12/16 10:21:48;;;;;;;49.70;35.03;;;;;;;7.59;99.10;103620.03;5036648;28;20393;-77
2021/12/16 10:24:28;;;;;;;46.97;35.78;;;;;;;7.70;99.54;103620.72;5041945;28;20139;-77
2021/12/16 10:27:09;;;;;;;50.05;36.35;;;;;;;7.80;99.49;103624.13;5040713;28;20187;-77
2021/12/16 10:29:49;;;;;;;52.45;37.05;;;;;;;7.88;99.14;103619.53;5040535;28;20021;-77
2021/12/16 10:32:40;;;;;;;48.20;34.25;;;;;;;7.98;98.88;103620.25;5039136;28;20033;-77
2021/12/16 10:35:19;;;;;;;49.17;36.17;;;;;;;8.11;99.14;103615.56;5044143;28;20307;-77
2021/12/16 10:37:53;;;;;;;53.13;35.42;;;;;;;8.18;98.95;103614.53;5039333;28;20032;-77
2021/12/16 10:40:36;;;;;;;50.03;35.53;;;;;;;8.27;98.92;103613.47;5041553;28;20033;-77
2021/12/16 10:43:07;;;;;;;45.25;34.25;;;;;;;8.34;98.54;103613.31;5046373;28;20029;-77
2021/12/16 10:45:37;;;;;;;44.72;33.90;;;;;;;8.42;98.10;103614.97;5044450;28;20040;-77
2021/12/16 10:48:34;;;;;;;50.70;35.78;;;;;;;8.50;98.21;103615.75;5046900;28;20017;-77
2021/12/16 10:51:08;;;;;;;46.13;32.38;;;;;;;8.56;97.83;103610.25;5041753;28;20064;-77
2021/12/16 10:53:45;;;;;;;46.10;31.38;;;;;;;8.66;97.67;103616.31;5041926;28;20040;-77
2021/12/16 10:56:11;;;;;;;48.03;31.08;;;;;;;8.77;97.84;103608.94;5046773;28;20041;-77
2021/12/16 10:58:56;;;;;;;42.03;30.10;;;;;;;8.83;96.71;103613.25;5043515;28;20029;-77
2021/12/16 11:01:35;;;;;;;40.90;27.50;;;;;;;8.92;96.19;103616.63;5056009;28;20041;-77
2021/12/16 11:04:01;;;;;;;38.23;27.23;;;;;;;8.98;95.37;103620.13;5047059;28;20106;-77
2021/12/16 11:06:33;;;;;;;37.63;26.15;;;;;;;9.02;95.42;103630.75;5042351;28;20104;-77
2021/12/16 11:09:25;;;;;;;38.38;26.27;;;;;;;9.07;95.33;103626.13;5041286;28;20327;-77
2021/12/16 11:12:21;;;;;;;40.97;27.08;;;;;;;9.14;94.95;103624.22;5043487;28;20032;-77
2021/12/16 11:15:01;;;;;;;39.97;25.95;;;;;;;9.22;94.83;103626.72;5044242;28;20049;-77
2021/12/16 11:17:33;;;;;;;37.83;26.33;;;;;;;9.29;94.37;103625.66;5040849;28;20026;-77
2021/12/16 11:20:09;;;;;;;38.42;23.38;;;;;;;9.36;93.53;103631.78;5042695;28;20107;-77
2021/12/16 11:22:36;;;;;;;36.90;25.23;;;;;;;9.40;93.01;103630.75;5040809;28;20140;-78
2021/12/16 11:25:29;;;;;;;39.63;22.90;;;;;;;9.44;92.17;103638.72;5047420;28;20187;-78
2021/12/16 11:28:06;;;;;;;37.17;23.25;;;;;;;9.43;92.33;103636.09;5046986;28;20497;-78
2021/12/16 11:30:36;;;;;;;38.88;22.95;;;;;;;9.44;92.30;103629.78;5056702;28;20036;-78
2021/12/16 11:33:09;;;;;;;40.50;23.73;;;;;;;9.46;92.79;103630.63;5048085;28;20481;-78
2021/12/16 11:35:39;;;;;;;39.63;21.23;;;;;;;9.47;92.01;103635.06;5045443;28;20029;-77
2021/12/16 11:38:28;;;;;;;32.95;18.20;;;;;;;9.45;91.40;103624.38;5046058;28;20033;-77
2021/12/16 11:41:06;;;;;;;34.27;20.93;;;;;;;9.47;92.98;103626.13;5042970;28;20501;-79
2021/12/16 11:43:40;;;;;;;42.35;25.85;;;;;;;9.23;100.00;103624.00;5058424;28;20199;-80
2021/12/16 11:46:13;;;;;;;38.05;24.55;;;;;;;9.10;100.00;103620.69;5051262;28;20481;-75
2021/12/16 11:48:40;;;;;;;42.53;25.98;;;;;;;9.05;100.00;103613.69;5047641;28;20384;-79
2021/12/16 11:51:13;;;;;;;43.80;28.27;;;;;;;8.91;100.00;103614.00;5047786;28;20060;-79
2021/12/16 11:53:45;;;;;;;45.30;29.67;;;;;;;8.88;100.00;103617.63;5041023;28;20021;-80
2021/12/16 11:56:11;;;;;;;40.15;27.17;;;;;;;8.83;100.00;103616.84;5046927;28;20388;-81
2021/12/16 11:58:39;;;;;;;39.60;27.70;;;;;;;8.88;100.00;103622.09;5045387;28;20338;-81
2021/12/16 12:01:22;;;;;;;50.53;30.17;;;;;;;8.96;100.00;103619.25;5048542;28;20033;-81
2021/12/16 12:03:48;;;;;;;49.25;30.15;;;;;;;8.99;100.00;103608.44;5062891;28;20484;-81
2021/12/16 12:06:23;;;;;;;42.13;29.80;;;;;;;9.00;100.00;103612.91;5045871;28;20041;-81
2021/12/16 12:08:51;;;;;;;51.60;32.97;;;;;;;9.00;100.00;103615.59;5048247;28;20048;-81
2021/12/16 12:11:20;;;;;;;48.40;29.10;;;;;;;9.00;100.00;103620.94;5043294;28;20104;-81
2021/12/16 12:13:49;;;;;;;46.53;28.70;;;;;;;8.98;100.00;103615.63;5044359;28;20465;-81
2021/12/16 12:16:20;;;;;;;47.53;29.70;;;;;;;8.94;100.00;103616.59;5045830;28;20376;-81
2021/12/16 12:18:57;;;;;;;52.20;32.65;;;;;;;8.95;100.00;103615.69;5053433;28;20016;-81
2021/12/16 12:21:23;;;;;;;51.22;30.77;;;;;;;8.95;100.00;103604.09;5046817;28;20029;-81
2021/12/16 12:24:21;;;;;;;42.20;26.13;;;;;;;8.88;100.00;103614.06;5044832;28;20052;-81
2021/12/16 12:26:56;;;;;;;43.13;27.43;;;;;;;8.84;100.00;103615.03;5046035;28;20446;-81
2021/12/16 12:29:50;;;;;;;39.35;28.08;;;;;;;8.84;100.00;103607.00;5061995;28;20033;-81
2021/12/16 12:32:20;;;;;;;43.63;27.33;;;;;;;8.80;100.00;103602.59;5046036;28;20136;-81
2021/12/16 12:34:52;;;;;;;42.25;27.25;;;;;;;8.78;100.00;103612.50;5051939;28;20043;-81
2021/12/16 12:37:19;;;;;;;42.83;26.98;;;;;;;8.77;100.00;103602.66;5056585;28;20092;-81
2021/12/16 12:40:01;;;;;;;40.88;27.30;;;;;;;8.79;100.00;103601.72;5059061;28;20021;-81
2021/12/16 12:42:26;;;;;;;46.17;29.33;;;;;;;8.77;100.00;103600.00;5046261;28;20025;-81
2021/12/16 12:44:52;;;;;;;43.03;28.52;;;;;;;8.77;100.00;103600.91;5057426;28;20065;-81
2021/12/16 12:47:22;;;;;;;41.22;29.45;;;;;;;8.78;100.00;103610.69;5041381;28;20029;-81
2021/12/16 12:49:48;;;;;;;43.90;29.70;;;;;;;8.80;100.00;103616.00;5043726;28;20017;-81
2021/12/16 12:52:17;;;;;;;40.40;28.27;;;;;;;8.80;100.00;103610.66;5047902;28;20032;-81
2021/12/16 12:54:46;;;;;;;49.30;30.33;;;;;;;8.80;100.00;103607.97;5050840;28;20114;-81
2021/12/16 12:57:23;;;;;;;41.50;29.37;;;;;;;8.78;100.00;103604.44;5038543;28;20075;-81
2021/12/16 12:59:49;;;;;;;51.10;30.75;;;;;;;8.77;100.00;103602.66;5044645;28;20292;-81
2021/12/16 13:02:24;;;;;;;43.60;29.02;;;;;;;8.72;100.00;103606.31;5045342;28;20115;-81
2021/12/16 13:05:07;;;;;;;44.28;29.77;;;;;;;8.77;100.00;103598.22;5043150;28;20228;-81
2021/12/16 13:07:44;;;;;;;45.05;28.30;;;;;;;8.75;100.00;103594.66;5044712;28;20029;-81
2021/12/16 13:10:15;;;;;;;42.42;28.83;;;;;;;8.73;100.00;103594.69;5042822;28;20108;-82
2021/12/16 13:12:49;;;;;;;44.60;28.17;;;;;;;8.80;100.00;103591.88;5044892;28;20082;-81
2021/12/16 13:15:33;;;;;;;43.13;26.95;;;;;;;8.78;100.00;103594.59;5043756;28;20039;-81
2021/12/16 13:23:37;;;;;;;46.00;25.10;;;;;;;8.80;100.00;103599.91;5046372;28;20052;-81
2021/12/16 13:29:07;;;;;;;34.67;21.85;;;;;;;8.74;100.00;103596.47;5043631;28;20163;-81
2021/12/16 13:32:31;;;;;;;39.55;22.50;;;;;;;8.77;100.00;103594.63;5044572;28;20387;-81
2021/12/16 13:34:47;;;;;;;38.07;21.37;;;;;;;8.76;100.00;103595.56;5046769;28;20189;-81
2021/12/16 13:37:22;;;;;;;38.00;21.02;;;;;;;8.74;100.00;103595.56;5045451;28;20291;-81
2021/12/16 13:39:51;;;;;;;32.97;20.92;;;;;;;8.72;100.00;103597.41;5056102;28;20086;-81
2021/12/16 13:42:17;;;;;;;35.95;19.75;;;;;;;8.73;100.00;103599.19;5051309;28;20403;-81
2021/12/16 13:44:51;;;;;;;33.58;19.38;;;;;;;8.72;100.00;103600.97;5047528;28;20059;-81
2021/12/16 13:59:39;;;;;;;37.60;20.48;;;;;;;8.69;100.00;103603.72;5046716;28;20116;-81
2021/12/16 14:10:11;;;;;;;34.17;18.92;;;;;;;8.63;100.00;103611.03;5051380;28;20144;-81
2021/12/16 14:36:41;;;;;;;28.42;14.25;;;;;;;8.13;100.00;103629.81;5021352;28;20155;-81
2021/12/16 14:39:39;;;;;;;28.30;15.02;;;;;;;8.03;100.00;103631.78;5022318;28;20095;-81